sensor_id;sensor_type;location;lat;lon;timestamp;P1;durP1;ratioP1;P2;durP2;ratioP2
18726;SDS011;9492;51.888;5.186;2023-05-07T00:01:49;11.23;;;8.20;;
18726;SDS011;9492;51.888;5.186;2023-05-07T00:04:15;11.37;;;8.67;;
18726;SDS011;9492;51.888;5.186;2023-05-07T00:06:41;9.40;;;7.70;;
18726;SDS011;9492;51.888;5.186;2023-05-07T00:09:07;9.53;;;7.63;;
18726;SDS011;9492;51.888;5.186;2023-05-07T00:11:33;8.20;;;7.40;;
18726;SDS011;9492;51.888;5.186;2023-05-07T00:13:59;8.90;;;7.07;;
18726;SDS011;9492;51.888;5.186;2023-05-07T00:16:26;7.73;;;6.97;;
18726;SDS011;9492;51.888;5.186;2023-05-07T00:18:52;8.10;;;7.30;;
18726;SDS011;9492;51.888;5.186;2023-05-07T00:21:18;8.83;;;7.70;;
18726;SDS011;9492;51.888;5.186;2023-05-07T00:23:44;8.50;;;6.47;;
18726;SDS011;9492;51.888;5.186;2023-05-07T00:26:10;7.87;;;7.07;;
18726;SDS011;9492;51.888;5.186;2023-05-07T00:28:36;7.67;;;6.97;;
18726;SDS011;9492;51.888;5.186;2023-05-07T00:31:02;8.60;;;7.20;;
18726;SDS011;9492;51.888;5.186;2023-05-07T00:33:28;7.53;;;6.80;;
18726;SDS011;9492;51.888;5.186;2023-05-07T00:35:54;6.90;;;6.30;;
18726;SDS011;9492;51.888;5.186;2023-05-07T00:38:20;8.47;;;6.57;;
18726;SDS011;9492;51.888;5.186;2023-05-07T00:40:46;7.83;;;6.83;;
18726;SDS011;9492;51.888;5.186;2023-05-07T00:43:12;9.97;;;6.70;;
18726;SDS011;9492;51.888;5.186;2023-05-07T00:45:38;9.90;;;7.07;;
18726;SDS011;9492;51.888;5.186;2023-05-07T00:48:04;7.73;;;6.03;;
18726;SDS011;9492;51.888;5.186;2023-05-07T00:50:31;7.77;;;7.07;;
18726;SDS011;9492;51.888;5.186;2023-05-07T00:52:58;11.63;;;7.80;;
18726;SDS011;9492;51.888;5.186;2023-05-07T00:55:24;7.63;;;6.67;;
18726;SDS011;9492;51.888;5.186;2023-05-07T00:57:50;8.20;;;6.70;;
18726;SDS011;9492;51.888;5.186;2023-05-07T01:00:16;7.97;;;6.60;;
18726;SDS011;9492;51.888;5.186;2023-05-07T01:02:43;7.87;;;7.07;;
18726;SDS011;9492;51.888;5.186;2023-05-07T01:05:10;7.87;;;7.17;;
18726;SDS011;9492;51.888;5.186;2023-05-07T01:07:37;7.73;;;6.70;;
18726;SDS011;9492;51.888;5.186;2023-05-07T01:10:04;10.70;;;6.60;;
18726;SDS011;9492;51.888;5.186;2023-05-07T01:12:31;7.73;;;6.97;;
18726;SDS011;9492;51.888;5.186;2023-05-07T01:14:57;7.70;;;6.43;;
18726;SDS011;9492;51.888;5.186;2023-05-07T01:17:23;7.03;;;6.33;;
18726;SDS011;9492;51.888;5.186;2023-05-07T01:19:49;7.93;;;6.77;;
18726;SDS011;9492;51.888;5.186;2023-05-07T01:24:47;6.63;;;6.03;;
18726;SDS011;9492;51.888;5.186;2023-05-07T01:27:13;6.47;;;5.97;;
18726;SDS011;9492;51.888;5.186;2023-05-07T01:29:39;6.80;;;6.20;;
18726;SDS011;9492;51.888;5.186;2023-05-07T01:32:05;6.67;;;6.07;;
18726;SDS011;9492;51.888;5.186;2023-05-07T01:34:32;6.03;;;5.43;;
18726;SDS011;9492;51.888;5.186;2023-05-07T01:36:58;6.93;;;6.23;;
18726;SDS011;9492;51.888;5.186;2023-05-07T01:39:25;6.43;;;5.80;;
18726;SDS011;9492;51.888;5.186;2023-05-07T01:41:53;7.07;;;5.90;;
18726;SDS011;9492;51.888;5.186;2023-05-07T01:44:20;6.23;;;5.67;;
18726;SDS011;9492;51.888;5.186;2023-05-07T01:46:47;5.90;;;5.37;;
18726;SDS011;9492;51.888;5.186;2023-05-07T01:49:13;6.77;;;6.00;;
18726;SDS011;9492;51.888;5.186;2023-05-07T01:51:39;5.80;;;5.20;;
18726;SDS011;9492;51.888;5.186;2023-05-07T01:54:05;6.23;;;5.63;;
18726;SDS011;9492;51.888;5.186;2023-05-07T01:56:33;5.80;;;5.30;;
18726;SDS011;9492;51.888;5.186;2023-05-07T01:58:59;5.73;;;5.23;;
18726;SDS011;9492;51.888;5.186;2023-05-07T02:01:25;5.10;;;4.60;;
18726;SDS011;9492;51.888;5.186;2023-05-07T02:03:51;5.97;;;5.13;;
18726;SDS011;9492;51.888;5.186;2023-05-07T02:06:18;5.50;;;5.10;;
18726;SDS011;9492;51.888;5.186;2023-05-07T02:08:44;5.17;;;4.67;;
18726;SDS011;9492;51.888;5.186;2023-05-07T02:11:11;4.87;;;4.33;;
18726;SDS011;9492;51.888;5.186;2023-05-07T02:13:37;6.50;;;4.90;;
18726;SDS011;9492;51.888;5.186;2023-05-07T02:16:03;7.67;;;4.90;;
18726;SDS011;9492;51.888;5.186;2023-05-07T02:18:29;5.53;;;5.00;;
18726;SDS011;9492;51.888;5.186;2023-05-07T02:20:55;6.00;;;5.43;;
18726;SDS011;9492;51.888;5.186;2023-05-07T02:23:21;6.03;;;4.77;;
18726;SDS011;9492;51.888;5.186;2023-05-07T02:25:47;6.33;;;5.20;;
18726;SDS011;9492;51.888;5.186;2023-05-07T02:28:13;6.40;;;5.80;;
18726;SDS011;9492;51.888;5.186;2023-05-07T02:30:39;7.70;;;5.90;;
18726;SDS011;9492;51.888;5.186;2023-05-07T02:33:05;5.67;;;5.17;;
18726;SDS011;9492;51.888;5.186;2023-05-07T02:35:33;7.70;;;6.57;;
18726;SDS011;9492;51.888;5.186;2023-05-07T02:37:59;5.90;;;5.33;;
18726;SDS011;9492;51.888;5.186;2023-05-07T02:40:25;6.20;;;5.40;;
18726;SDS011;9492;51.888;5.186;2023-05-07T02:42:51;5.90;;;5.33;;
18726;SDS011;9492;51.888;5.186;2023-05-07T02:45:17;5.97;;;5.40;;
18726;SDS011;9492;51.888;5.186;2023-05-07T02:47:43;5.27;;;4.77;;
18726;SDS011;9492;51.888;5.186;2023-05-07T02:50:09;5.70;;;5.30;;
18726;SDS011;9492;51.888;5.186;2023-05-07T02:52:35;6.60;;;6.00;;
18726;SDS011;9492;51.888;5.186;2023-05-07T02:55:01;6.00;;;5.50;;
18726;SDS011;9492;51.888;5.186;2023-05-07T02:57:27;6.87;;;5.90;;
18726;SDS011;9492;51.888;5.186;2023-05-07T02:59:53;6.90;;;6.20;;
18726;SDS011;9492;51.888;5.186;2023-05-07T03:02:19;5.70;;;5.20;;
18726;SDS011;9492;51.888;5.186;2023-05-07T03:04:45;5.67;;;5.17;;
18726;SDS011;9492;51.888;5.186;2023-05-07T03:07:11;6.90;;;6.17;;
18726;SDS011;9492;51.888;5.186;2023-05-07T03:09:37;6.77;;;5.93;;
18726;SDS011;9492;51.888;5.186;2023-05-07T03:12:03;5.93;;;5.37;;
18726;SDS011;9492;51.888;5.186;2023-05-07T03:14:29;7.50;;;6.20;;
18726;SDS011;9492;51.888;5.186;2023-05-07T03:16:55;6.93;;;6.33;;
18726;SDS011;9492;51.888;5.186;2023-05-07T03:19:21;6.83;;;6.20;;
18726;SDS011;9492;51.888;5.186;2023-05-07T03:21:47;7.93;;;6.50;;
18726;SDS011;9492;51.888;5.186;2023-05-07T03:24:13;6.77;;;6.00;;
18726;SDS011;9492;51.888;5.186;2023-05-07T03:26:39;7.20;;;6.50;;
18726;SDS011;9492;51.888;5.186;2023-05-07T03:29:05;7.03;;;6.37;;
18726;SDS011;9492;51.888;5.186;2023-05-07T03:31:31;7.27;;;6.67;;
18726;SDS011;9492;51.888;5.186;2023-05-07T03:33:57;7.53;;;6.83;;
18726;SDS011;9492;51.888;5.186;2023-05-07T03:36:23;8.57;;;7.57;;
18726;SDS011;9492;51.888;5.186;2023-05-07T03:38:52;7.60;;;6.80;;
18726;SDS011;9492;51.888;5.186;2023-05-07T03:41:18;8.53;;;7.70;;
18726;SDS011;9492;51.888;5.186;2023-05-07T03:43:45;8.73;;;6.53;;
18726;SDS011;9492;51.888;5.186;2023-05-07T03:46:11;8.40;;;7.60;;
18726;SDS011;9492;51.888;5.186;2023-05-07T03:48:37;8.13;;;6.90;;
18726;SDS011;9492;51.888;5.186;2023-05-07T03:51:03;8.43;;;7.63;;
18726;SDS011;9492;51.888;5.186;2023-05-07T03:53:29;9.57;;;7.73;;
18726;SDS011;9492;51.888;5.186;2023-05-07T03:55:55;7.97;;;7.23;;
18726;SDS011;9492;51.888;5.186;2023-05-07T03:58:21;7.77;;;6.80;;
18726;SDS011;9492;51.888;5.186;2023-05-07T04:00:47;8.10;;;6.67;;
18726;SDS011;9492;51.888;5.186;2023-05-07T04:03:13;7.20;;;6.50;;
18726;SDS011;9492;51.888;5.186;2023-05-07T04:05:40;9.27;;;6.80;;
18726;SDS011;9492;51.888;5.186;2023-05-07T04:08:06;7.90;;;6.70;;
18726;SDS011;9492;51.888;5.186;2023-05-07T04:10:32;8.13;;;7.33;;
18726;SDS011;9492;51.888;5.186;2023-05-07T04:12:58;8.97;;;8.03;;
18726;SDS011;9492;51.888;5.186;2023-05-07T04:15:24;11.17;;;8.30;;
18726;SDS011;9492;51.888;5.186;2023-05-07T04:17:50;11.03;;;8.97;;
18726;SDS011;9492;51.888;5.186;2023-05-07T04:20:16;8.80;;;7.87;;
18726;SDS011;9492;51.888;5.186;2023-05-07T04:22:44;8.13;;;7.30;;
18726;SDS011;9492;51.888;5.186;2023-05-07T04:25:10;10.57;;;8.10;;
18726;SDS011;9492;51.888;5.186;2023-05-07T04:27:36;9.20;;;8.30;;
18726;SDS011;9492;51.888;5.186;2023-05-07T04:30:02;9.17;;;8.27;;
18726;SDS011;9492;51.888;5.186;2023-05-07T04:32:29;11.13;;;9.13;;
18726;SDS011;9492;51.888;5.186;2023-05-07T04:34:55;9.97;;;8.43;;
18726;SDS011;9492;51.888;5.186;2023-05-07T04:37:22;11.03;;;9.83;;
18726;SDS011;9492;51.888;5.186;2023-05-07T04:39:48;10.30;;;9.30;;
18726;SDS011;9492;51.888;5.186;2023-05-07T04:42:14;9.90;;;8.90;;
18726;SDS011;9492;51.888;5.186;2023-05-07T04:44:41;10.43;;;9.43;;
18726;SDS011;9492;51.888;5.186;2023-05-07T04:47:06;10.70;;;9.60;;
18726;SDS011;9492;51.888;5.186;2023-05-07T04:49:32;10.23;;;9.23;;
18726;SDS011;9492;51.888;5.186;2023-05-07T04:51:58;13.27;;;10.20;;
18726;SDS011;9492;51.888;5.186;2023-05-07T04:54:25;9.53;;;8.60;;
18726;SDS011;9492;51.888;5.186;2023-05-07T04:56:51;11.63;;;9.63;;
18726;SDS011;9492;51.888;5.186;2023-05-07T04:59:17;10.37;;;8.93;;
18726;SDS011;9492;51.888;5.186;2023-05-07T05:01:43;11.87;;;9.53;;
18726;SDS011;9492;51.888;5.186;2023-05-07T05:04:09;11.27;;;10.17;;
18726;SDS011;9492;51.888;5.186;2023-05-07T05:06:35;10.37;;;9.27;;
18726;SDS011;9492;51.888;5.186;2023-05-07T05:09:03;11.77;;;10.57;;
18726;SDS011;9492;51.888;5.186;2023-05-07T05:11:30;12.47;;;11.17;;
18726;SDS011;9492;51.888;5.186;2023-05-07T05:13:56;12.17;;;10.83;;
18726;SDS011;9492;51.888;5.186;2023-05-07T05:16:22;11.67;;;10.57;;
18726;SDS011;9492;51.888;5.186;2023-05-07T05:18:48;12.50;;;11.23;;
18726;SDS011;9492;51.888;5.186;2023-05-07T05:21:14;12.90;;;11.03;;
18726;SDS011;9492;51.888;5.186;2023-05-07T05:23:40;11.40;;;10.30;;
18726;SDS011;9492;51.888;5.186;2023-05-07T05:26:06;11.57;;;10.57;;
18726;SDS011;9492;51.888;5.186;2023-05-07T05:28:34;13.10;;;11.70;;
18726;SDS011;9492;51.888;5.186;2023-05-07T05:31:00;12.80;;;11.50;;
18726;SDS011;9492;51.888;5.186;2023-05-07T05:33:26;11.70;;;10.50;;
18726;SDS011;9492;51.888;5.186;2023-05-07T05:35:53;12.17;;;10.97;;
18726;SDS011;9492;51.888;5.186;2023-05-07T05:38:19;12.43;;;11.17;;
18726;SDS011;9492;51.888;5.186;2023-05-07T05:40:51;10.63;;;9.63;;
18726;SDS011;9492;51.888;5.186;2023-05-07T05:43:17;11.73;;;10.53;;
18726;SDS011;9492;51.888;5.186;2023-05-07T05:45:44;12.70;;;11.33;;
18726;SDS011;9492;51.888;5.186;2023-05-07T05:48:10;14.43;;;11.53;;
18726;SDS011;9492;51.888;5.186;2023-05-07T05:50:36;16.17;;;12.20;;
18726;SDS011;9492;51.888;5.186;2023-05-07T05:53:02;12.97;;;11.53;;
18726;SDS011;9492;51.888;5.186;2023-05-07T05:55:29;16.23;;;12.63;;
18726;SDS011;9492;51.888;5.186;2023-05-07T05:57:55;13.30;;;11.30;;
18726;SDS011;9492;51.888;5.186;2023-05-07T06:00:21;16.43;;;12.73;;
18726;SDS011;9492;51.888;5.186;2023-05-07T06:02:48;15.90;;;13.30;;
18726;SDS011;9492;51.888;5.186;2023-05-07T06:05:14;14.43;;;12.83;;
18726;SDS011;9492;51.888;5.186;2023-05-07T06:07:42;13.87;;;12.23;;
18726;SDS011;9492;51.888;5.186;2023-05-07T06:10:08;14.53;;;13.00;;
18726;SDS011;9492;51.888;5.186;2023-05-07T06:12:34;13.93;;;11.37;;
18726;SDS011;9492;51.888;5.186;2023-05-07T06:15:00;13.37;;;12.03;;
18726;SDS011;9492;51.888;5.186;2023-05-07T06:17:26;14.77;;;13.27;;
18726;SDS011;9492;51.888;5.186;2023-05-07T06:19:52;14.00;;;12.43;;
18726;SDS011;9492;51.888;5.186;2023-05-07T06:22:18;15.57;;;12.73;;
18726;SDS011;9492;51.888;5.186;2023-05-07T06:24:44;13.70;;;12.30;;
18726;SDS011;9492;51.888;5.186;2023-05-07T06:27:11;14.37;;;12.77;;
18726;SDS011;9492;51.888;5.186;2023-05-07T06:29:37;14.33;;;11.90;;
18726;SDS011;9492;51.888;5.186;2023-05-07T06:32:09;14.33;;;12.93;;
18726;SDS011;9492;51.888;5.186;2023-05-07T06:34:36;15.23;;;12.67;;
18726;SDS011;9492;51.888;5.186;2023-05-07T06:37:02;16.67;;;13.67;;
18726;SDS011;9492;51.888;5.186;2023-05-07T06:39:29;15.33;;;12.10;;
18726;SDS011;9492;51.888;5.186;2023-05-07T06:41:55;13.67;;;12.20;;
18726;SDS011;9492;51.888;5.186;2023-05-07T06:44:21;13.90;;;11.97;;
18726;SDS011;9492;51.888;5.186;2023-05-07T06:46:47;12.83;;;11.07;;
18726;SDS011;9492;51.888;5.186;2023-05-07T06:49:15;16.37;;;12.73;;
18726;SDS011;9492;51.888;5.186;2023-05-07T06:51:41;14.57;;;13.17;;
18726;SDS011;9492;51.888;5.186;2023-05-07T06:54:07;14.00;;;12.50;;
18726;SDS011;9492;51.888;5.186;2023-05-07T06:56:33;14.80;;;13.20;;
18726;SDS011;9492;51.888;5.186;2023-05-07T06:58:59;14.73;;;13.23;;
18726;SDS011;9492;51.888;5.186;2023-05-07T07:01:26;15.90;;;13.43;;
18726;SDS011;9492;51.888;5.186;2023-05-07T07:03:52;14.20;;;12.57;;
18726;SDS011;9492;51.888;5.186;2023-05-07T07:06:18;14.00;;;12.50;;
18726;SDS011;9492;51.888;5.186;2023-05-07T07:08:44;16.43;;;13.90;;
18726;SDS011;9492;51.888;5.186;2023-05-07T07:11:10;16.03;;;13.67;;
18726;SDS011;9492;51.888;5.186;2023-05-07T07:13:36;14.57;;;13.07;;
18726;SDS011;9492;51.888;5.186;2023-05-07T07:16:02;15.33;;;13.47;;
18726;SDS011;9492;51.888;5.186;2023-05-07T07:18:28;19.47;;;14.27;;
18726;SDS011;9492;51.888;5.186;2023-05-07T07:20:54;16.83;;;13.73;;
18726;SDS011;9492;51.888;5.186;2023-05-07T07:23:21;17.60;;;13.33;;
18726;SDS011;9492;51.888;5.186;2023-05-07T07:25:47;15.23;;;13.27;;
18726;SDS011;9492;51.888;5.186;2023-05-07T07:28:13;16.40;;;14.27;;
18726;SDS011;9492;51.888;5.186;2023-05-07T07:30:39;15.00;;;13.40;;
18726;SDS011;9492;51.888;5.186;2023-05-07T07:33:05;18.23;;;13.97;;
18726;SDS011;9492;51.888;5.186;2023-05-07T07:35:31;16.57;;;13.97;;
18726;SDS011;9492;51.888;5.186;2023-05-07T07:37:58;14.87;;;13.33;;
18726;SDS011;9492;51.888;5.186;2023-05-07T07:40:24;15.73;;;13.00;;
18726;SDS011;9492;51.888;5.186;2023-05-07T07:42:51;14.17;;;12.63;;
18726;SDS011;9492;51.888;5.186;2023-05-07T07:45:17;21.20;;;12.83;;
18726;SDS011;9492;51.888;5.186;2023-05-07T07:47:43;14.47;;;12.40;;
18726;SDS011;9492;51.888;5.186;2023-05-07T07:50:09;13.97;;;12.13;;
18726;SDS011;9492;51.888;5.186;2023-05-07T07:52:35;14.27;;;12.83;;
18726;SDS011;9492;51.888;5.186;2023-05-07T07:55:01;13.63;;;11.83;;
18726;SDS011;9492;51.888;5.186;2023-05-07T07:57:27;16.23;;;11.63;;
18726;SDS011;9492;51.888;5.186;2023-05-07T07:59:53;15.10;;;13.57;;
18726;SDS011;9492;51.888;5.186;2023-05-07T08:02:19;13.27;;;11.93;;
18726;SDS011;9492;51.888;5.186;2023-05-07T08:04:45;14.30;;;12.80;;
18726;SDS011;9492;51.888;5.186;2023-05-07T08:07:11;13.93;;;12.53;;
18726;SDS011;9492;51.888;5.186;2023-05-07T08:09:39;13.63;;;12.23;;
18726;SDS011;9492;51.888;5.186;2023-05-07T08:12:06;14.37;;;12.27;;
18726;SDS011;9492;51.888;5.186;2023-05-07T08:14:32;12.97;;;11.57;;
18726;SDS011;9492;51.888;5.186;2023-05-07T08:16:58;12.80;;;11.23;;
18726;SDS011;9492;51.888;5.186;2023-05-07T08:19:24;11.90;;;10.50;;
18726;SDS011;9492;51.888;5.186;2023-05-07T08:21:50;12.90;;;11.57;;
18726;SDS011;9492;51.888;5.186;2023-05-07T08:24:16;11.97;;;10.77;;
18726;SDS011;9492;51.888;5.186;2023-05-07T08:26:43;12.40;;;11.17;;
18726;SDS011;9492;51.888;5.186;2023-05-07T08:29:09;15.90;;;11.10;;
18726;SDS011;9492;51.888;5.186;2023-05-07T08:31:36;11.93;;;10.40;;
18726;SDS011;9492;51.888;5.186;2023-05-07T08:34:03;12.07;;;10.83;;
18726;SDS011;9492;51.888;5.186;2023-05-07T08:36:30;11.67;;;9.43;;
18726;SDS011;9492;51.888;5.186;2023-05-07T08:38:55;11.40;;;9.60;;
18726;SDS011;9492;51.888;5.186;2023-05-07T08:41:22;11.67;;;9.67;;
18726;SDS011;9492;51.888;5.186;2023-05-07T08:43:48;12.57;;;11.03;;
18726;SDS011;9492;51.888;5.186;2023-05-07T08:46:18;11.73;;;10.03;;
18726;SDS011;9492;51.888;5.186;2023-05-07T08:48:44;11.43;;;10.10;;
18726;SDS011;9492;51.888;5.186;2023-05-07T08:51:15;10.43;;;9.43;;
18726;SDS011;9492;51.888;5.186;2023-05-07T08:53:41;10.50;;;9.47;;
18726;SDS011;9492;51.888;5.186;2023-05-07T08:56:08;8.83;;;7.93;;
18726;SDS011;9492;51.888;5.186;2023-05-07T08:58:34;10.67;;;9.30;;
18726;SDS011;9492;51.888;5.186;2023-05-07T09:01:07;15.43;;;10.63;;
18726;SDS011;9492;51.888;5.186;2023-05-07T09:03:33;9.73;;;8.83;;
18726;SDS011;9492;51.888;5.186;2023-05-07T09:05:59;9.67;;;8.37;;
18726;SDS011;9492;51.888;5.186;2023-05-07T09:08:28;9.30;;;8.30;;
18726;SDS011;9492;51.888;5.186;2023-05-07T09:10:54;9.03;;;8.03;;
18726;SDS011;9492;51.888;5.186;2023-05-07T09:13:20;9.93;;;7.87;;
18726;SDS011;9492;51.888;5.186;2023-05-07T09:15:46;8.50;;;7.63;;
18726;SDS011;9492;51.888;5.186;2023-05-07T09:18:12;9.63;;;8.63;;
18726;SDS011;9492;51.888;5.186;2023-05-07T09:20:38;9.30;;;8.00;;
18726;SDS011;9492;51.888;5.186;2023-05-07T09:23:07;9.60;;;8.60;;
18726;SDS011;9492;51.888;5.186;2023-05-07T09:25:34;8.87;;;7.97;;
18726;SDS011;9492;51.888;5.186;2023-05-07T09:28:01;9.47;;;8.37;;
18726;SDS011;9492;51.888;5.186;2023-05-07T09:30:27;8.47;;;7.57;;
18726;SDS011;9492;51.888;5.186;2023-05-07T09:32:54;10.07;;;7.90;;
18726;SDS011;9492;51.888;5.186;2023-05-07T09:35:21;8.27;;;7.40;;
18726;SDS011;9492;51.888;5.186;2023-05-07T09:37:49;8.63;;;7.67;;
18726;SDS011;9492;51.888;5.186;2023-05-07T09:40:52;8.00;;;7.20;;
18726;SDS011;9492;51.888;5.186;2023-05-07T09:43:11;7.77;;;6.40;;
18726;SDS011;9492;51.888;5.186;2023-05-07T09:45:38;7.53;;;6.83;;
18726;SDS011;9492;51.888;5.186;2023-05-07T09:48:04;8.07;;;7.27;;
18726;SDS011;9492;51.888;5.186;2023-05-07T09:50:40;8.00;;;7.20;;
18726;SDS011;9492;51.888;5.186;2023-05-07T09:53:10;7.60;;;6.80;;
18726;SDS011;9492;51.888;5.186;2023-05-07T09:55:36;9.27;;;8.33;;
18726;SDS011;9492;51.888;5.186;2023-05-07T09:58:03;9.87;;;8.00;;
18726;SDS011;9492;51.888;5.186;2023-05-07T10:00:30;8.70;;;6.83;;
18726;SDS011;9492;51.888;5.186;2023-05-07T10:02:57;8.43;;;7.53;;
18726;SDS011;9492;51.888;5.186;2023-05-07T10:05:23;8.30;;;7.00;;
18726;SDS011;9492;51.888;5.186;2023-05-07T10:07:49;8.10;;;7.13;;
18726;SDS011;9492;51.888;5.186;2023-05-07T10:10:16;7.80;;;7.00;;
18726;SDS011;9492;51.888;5.186;2023-05-07T10:12:43;7.07;;;6.40;;
18726;SDS011;9492;51.888;5.186;2023-05-07T10:15:09;8.73;;;7.83;;
18726;SDS011;9492;51.888;5.186;2023-05-07T10:17:36;9.23;;;8.30;;
18726;SDS011;9492;51.888;5.186;2023-05-07T10:20:03;10.03;;;7.67;;
18726;SDS011;9492;51.888;5.186;2023-05-07T10:22:30;8.67;;;7.77;;
18726;SDS011;9492;51.888;5.186;2023-05-07T10:24:59;9.00;;;7.97;;
18726;SDS011;9492;51.888;5.186;2023-05-07T10:27:27;9.50;;;8.10;;
18726;SDS011;9492;51.888;5.186;2023-05-07T10:30:05;8.70;;;7.90;;
18726;SDS011;9492;51.888;5.186;2023-05-07T10:32:35;9.23;;;7.97;;
18726;SDS011;9492;51.888;5.186;2023-05-07T10:35:03;8.83;;;8.03;;
18726;SDS011;9492;51.888;5.186;2023-05-07T10:37:30;8.70;;;7.90;;
18726;SDS011;9492;51.888;5.186;2023-05-07T10:39:56;8.87;;;8.07;;
18726;SDS011;9492;51.888;5.186;2023-05-07T10:42:23;9.73;;;8.73;;
18726;SDS011;9492;51.888;5.186;2023-05-07T10:44:49;10.60;;;9.20;;
18726;SDS011;9492;51.888;5.186;2023-05-07T10:47:15;8.83;;;7.93;;
18726;SDS011;9492;51.888;5.186;2023-05-07T10:54:42;11.00;;;9.67;;
18726;SDS011;9492;51.888;5.186;2023-05-07T10:59:54;11.93;;;8.77;;
18726;SDS011;9492;51.888;5.186;2023-05-07T11:02:23;8.67;;;7.73;;
18726;SDS011;9492;51.888;5.186;2023-05-07T11:05:18;9.27;;;6.83;;
18726;SDS011;9492;51.888;5.186;2023-05-07T11:07:44;7.83;;;6.50;;
18726;SDS011;9492;51.888;5.186;2023-05-07T11:10:19;9.33;;;7.13;;
18726;SDS011;9492;51.888;5.186;2023-05-07T11:12:46;8.10;;;7.07;;
18726;SDS011;9492;51.888;5.186;2023-05-07T11:15:13;6.47;;;5.67;;
18726;SDS011;9492;51.888;5.186;2023-05-07T11:17:58;7.50;;;6.80;;
18726;SDS011;9492;51.888;5.186;2023-05-07T11:23:54;6.77;;;6.07;;
18726;SDS011;9492;51.888;5.186;2023-05-07T11:25:59;7.17;;;5.97;;
18726;SDS011;9492;51.888;5.186;2023-05-07T11:28:27;5.83;;;5.20;;
18726;SDS011;9492;51.888;5.186;2023-05-07T11:30:53;7.20;;;6.03;;
18726;SDS011;9492;51.888;5.186;2023-05-07T11:33:19;8.50;;;7.23;;
18726;SDS011;9492;51.888;5.186;2023-05-07T11:35:45;9.23;;;7.23;;
18726;SDS011;9492;51.888;5.186;2023-05-07T11:38:12;6.63;;;6.03;;
18726;SDS011;9492;51.888;5.186;2023-05-07T11:40:57;5.83;;;5.23;;
18726;SDS011;9492;51.888;5.186;2023-05-07T11:43:25;6.77;;;3.47;;
18726;SDS011;9492;51.888;5.186;2023-05-07T11:45:51;4.70;;;3.17;;
18726;SDS011;9492;51.888;5.186;2023-05-07T11:48:17;3.67;;;3.37;;
18726;SDS011;9492;51.888;5.186;2023-05-07T11:51:17;5.30;;;4.80;;
18726;SDS011;9492;51.888;5.186;2023-05-07T11:53:38;5.17;;;4.53;;
18726;SDS011;9492;51.888;5.186;2023-05-07T11:56:08;4.70;;;4.10;;
18726;SDS011;9492;51.888;5.186;2023-05-07T11:58:35;5.73;;;4.33;;
18726;SDS011;9492;51.888;5.186;2023-05-07T12:01:01;3.80;;;3.40;;
18726;SDS011;9492;51.888;5.186;2023-05-07T12:03:27;4.33;;;4.00;;
18726;SDS011;9492;51.888;5.186;2023-05-07T12:05:53;6.40;;;4.57;;
18726;SDS011;9492;51.888;5.186;2023-05-07T12:08:20;5.83;;;5.23;;
18726;SDS011;9492;51.888;5.186;2023-05-07T12:10:47;6.47;;;5.53;;
18726;SDS011;9492;51.888;5.186;2023-05-07T12:13:14;7.03;;;5.70;;
18726;SDS011;9492;51.888;5.186;2023-05-07T12:15:41;6.17;;;5.50;;
18726;SDS011;9492;51.888;5.186;2023-05-07T12:18:06;6.37;;;5.77;;
18726;SDS011;9492;51.888;5.186;2023-05-07T12:20:33;7.27;;;6.60;;
18726;SDS011;9492;51.888;5.186;2023-05-07T12:23:00;9.03;;;7.43;;
18726;SDS011;9492;51.888;5.186;2023-05-07T12:25:26;8.03;;;7.23;;
18726;SDS011;9492;51.888;5.186;2023-05-07T12:27:55;8.33;;;6.73;;
18726;SDS011;9492;51.888;5.186;2023-05-07T12:30:23;6.47;;;5.77;;
18726;SDS011;9492;51.888;5.186;2023-05-07T12:32:52;6.67;;;5.97;;
18726;SDS011;9492;51.888;5.186;2023-05-07T12:35:25;7.40;;;6.70;;
18726;SDS011;9492;51.888;5.186;2023-05-07T12:37:55;9.37;;;8.33;;
18726;SDS011;9492;51.888;5.186;2023-05-07T12:40:24;6.70;;;5.97;;
18726;SDS011;9492;51.888;5.186;2023-05-07T12:42:52;7.23;;;6.40;;
18726;SDS011;9492;51.888;5.186;2023-05-07T12:45:21;8.17;;;7.20;;
18726;SDS011;9492;51.888;5.186;2023-05-07T12:47:47;8.87;;;7.70;;
18726;SDS011;9492;51.888;5.186;2023-05-07T12:50:14;6.47;;;5.73;;
18726;SDS011;9492;51.888;5.186;2023-05-07T12:52:40;7.50;;;5.93;;
18726;SDS011;9492;51.888;5.186;2023-05-07T12:55:06;7.43;;;6.47;;
18726;SDS011;9492;51.888;5.186;2023-05-07T12:57:39;7.83;;;7.13;;
18726;SDS011;9492;51.888;5.186;2023-05-07T13:00:06;7.97;;;7.17;;
18726;SDS011;9492;51.888;5.186;2023-05-07T13:02:41;8.67;;;7.13;;
18726;SDS011;9492;51.888;5.186;2023-05-07T13:05:11;8.37;;;7.57;;
18726;SDS011;9492;51.888;5.186;2023-05-07T13:07:37;10.23;;;7.70;;
18726;SDS011;9492;51.888;5.186;2023-05-07T13:10:03;9.03;;;6.83;;
18726;SDS011;9492;51.888;5.186;2023-05-07T13:12:29;8.67;;;6.57;;
18726;SDS011;9492;51.888;5.186;2023-05-07T13:14:55;6.50;;;5.60;;
18726;SDS011;9492;51.888;5.186;2023-05-07T13:17:21;6.07;;;5.47;;
18726;SDS011;9492;51.888;5.186;2023-05-07T13:19:47;7.17;;;5.83;;
18726;SDS011;9492;51.888;5.186;2023-05-07T13:22:13;7.57;;;6.67;;
18726;SDS011;9492;51.888;5.186;2023-05-07T13:24:39;9.93;;;6.47;;
18726;SDS011;9492;51.888;5.186;2023-05-07T13:27:07;6.77;;;6.17;;
18726;SDS011;9492;51.888;5.186;2023-05-07T13:29:33;7.17;;;5.70;;
18726;SDS011;9492;51.888;5.186;2023-05-07T13:32:00;6.77;;;5.87;;
18726;SDS011;9492;51.888;5.186;2023-05-07T13:34:26;7.93;;;6.03;;
18726;SDS011;9492;51.888;5.186;2023-05-07T13:36:52;6.23;;;5.50;;
18726;SDS011;9492;51.888;5.186;2023-05-07T13:39:18;6.80;;;5.07;;
18726;SDS011;9492;51.888;5.186;2023-05-07T13:41:44;7.17;;;5.20;;
18726;SDS011;9492;51.888;5.186;2023-05-07T13:44:10;5.50;;;4.53;;
18726;SDS011;9492;51.888;5.186;2023-05-07T13:46:36;7.40;;;4.50;;
18726;SDS011;9492;51.888;5.186;2023-05-07T13:49:02;6.87;;;4.03;;
18726;SDS011;9492;51.888;5.186;2023-05-07T13:51:28;7.20;;;3.90;;
18726;SDS011;9492;51.888;5.186;2023-05-07T13:53:54;7.63;;;4.53;;
18726;SDS011;9492;51.888;5.186;2023-05-07T13:56:20;4.13;;;3.73;;
18726;SDS011;9492;51.888;5.186;2023-05-07T13:58:46;5.20;;;3.67;;
18726;SDS011;9492;51.888;5.186;2023-05-07T14:01:12;5.57;;;3.43;;
18726;SDS011;9492;51.888;5.186;2023-05-07T14:03:38;5.30;;;3.60;;
18726;SDS011;9492;51.888;5.186;2023-05-07T14:06:04;4.10;;;3.50;;
18726;SDS011;9492;51.888;5.186;2023-05-07T14:08:31;6.93;;;3.83;;
18726;SDS011;9492;51.888;5.186;2023-05-07T14:10:57;4.00;;;2.90;;
18726;SDS011;9492;51.888;5.186;2023-05-07T14:13:23;6.30;;;3.10;;
18726;SDS011;9492;51.888;5.186;2023-05-07T14:15:49;4.97;;;3.70;;
18726;SDS011;9492;51.888;5.186;2023-05-07T14:18:15;6.13;;;4.93;;
18726;SDS011;9492;51.888;5.186;2023-05-07T14:20:41;7.37;;;4.97;;
18726;SDS011;9492;51.888;5.186;2023-05-07T14:23:11;6.70;;;5.33;;
18726;SDS011;9492;51.888;5.186;2023-05-07T14:25:37;5.20;;;4.70;;
18726;SDS011;9492;51.888;5.186;2023-05-07T14:28:03;5.67;;;4.07;;
18726;SDS011;9492;51.888;5.186;2023-05-07T14:30:29;4.47;;;3.73;;
18726;SDS011;9492;51.888;5.186;2023-05-07T14:32:55;4.37;;;3.20;;
18726;SDS011;9492;51.888;5.186;2023-05-07T14:35:21;5.07;;;3.23;;
18726;SDS011;9492;51.888;5.186;2023-05-07T14:37:47;3.87;;;2.50;;
18726;SDS011;9492;51.888;5.186;2023-05-07T14:40:13;2.73;;;2.33;;
18726;SDS011;9492;51.888;5.186;2023-05-07T14:42:40;4.77;;;2.93;;
18726;SDS011;9492;51.888;5.186;2023-05-07T14:45:07;5.93;;;3.83;;
18726;SDS011;9492;51.888;5.186;2023-05-07T14:47:33;4.73;;;4.23;;
18726;SDS011;9492;51.888;5.186;2023-05-07T14:49:59;10.07;;;5.97;;
18726;SDS011;9492;51.888;5.186;2023-05-07T14:52:26;9.67;;;6.80;;
18726;SDS011;9492;51.888;5.186;2023-05-07T14:54:52;9.03;;;8.13;;
18726;SDS011;9492;51.888;5.186;2023-05-07T14:57:18;9.67;;;8.33;;
18726;SDS011;9492;51.888;5.186;2023-05-07T14:59:44;8.63;;;7.80;;
18726;SDS011;9492;51.888;5.186;2023-05-07T15:02:11;8.57;;;7.03;;
18726;SDS011;9492;51.888;5.186;2023-05-07T15:04:38;8.17;;;6.50;;